Time;durP1;ratioP1;P1;durP2;ratioP2;P2;SDS_P1;SDS_P2;PMS_P1;PMS_P2;Temp;Humidity;BMP_temperature;BMP_pressure;BME280_temperature;BME280_humidity;BME280_pressure;Samples;Min_cycle;Max_cycle;Signal;HPM_P1;HPM_P2
2021/01/04 00:00:52;;;;;;;6.65;6.05;;;4.20;99.90;;;;;;2073165;28;20040;-84
2021/01/04 00:02:12;;;;;;;6.95;6.22;;;4.20;99.90;;;;;;2072327;28;20420;-82
2021/01/04 00:03:19;;;;;;;6.85;6.15;;;4.20;99.90;;;;;;2075773;28;20025;-81
2021/01/04 00:04:23;;;;;;;6.30;5.70;;;4.20;99.90;;;;;;2080941;28;20025;-82
2021/01/04 00:05:26;;;;;;;6.53;6.00;;;4.20;99.90;;;;;;2073587;28;20026;-82
2021/01/04 00:06:55;;;;;;;6.88;6.28;;;4.20;99.90;;;;;;2073943;28;20471;-81
2021/01/04 00:08:20;;;;;;;7.00;6.30;;;4.20;99.90;;;;;;2073561;28;20827;-83
2021/01/04 00:09:24;;;;;;;7.10;6.50;;;4.20;99.90;;;;;;2074067;28;20108;-82
2021/01/04 00:10:33;;;;;;;6.97;6.38;;;4.20;99.90;;;;;;2066438;28;20026;-81
2021/01/04 00:11:41;;;;;;;7.60;6.90;;;4.20;99.90;;;;;;2071827;28;20675;-83
2021/01/04 00:12:58;;;;;;;7.03;6.43;;;4.20;99.90;;;;;;2066961;28;20081;-80
2021/01/04 00:14:14;;;;;;;6.82;6.22;;;4.20;99.90;;;;;;2066769;28;20022;-83
2021/01/04 00:15:44;;;;;;;7.10;6.40;;;4.20;99.90;;;;;;2073184;28;20125;-82
2021/01/04 00:17:04;;;;;;;6.75;6.15;;;4.20;99.90;;;;;;2073568;28;20594;-83
2021/01/04 00:18:04;;;;;;;7.07;6.40;;;4.20;99.90;;;;;;2072757;28;20037;-83
2021/01/04 00:19:24;;;;;;;6.75;6.15;;;4.20;99.90;;;;;;2073654;28;20427;-82
2021/01/04 00:20:27;;;;;;;7.50;6.80;;;4.20;99.90;;;;;;2072073;28;20033;-83
2021/01/04 00:22:07;;;;;;;6.85;6.25;;;4.20;99.90;;;;;;2072700;28;20791;-82
2021/01/04 00:23:34;;;;;;;7.47;6.82;;;4.20;99.90;;;;;;2071304;28;20096;-82
2021/01/04 00:24:59;;;;;;;8.00;7.20;;;4.20;99.90;;;;;;2072626;28;20124;-83
2021/01/04 00:26:10;;;;;;;7.53;6.88;;;4.20;99.90;;;;;;2058912;28;20038;-83
2021/01/04 00:27:30;;;;;;;7.43;6.82;;;4.10;99.90;;;;;;2065439;28;20022;-82
2021/01/04 00:28:34;;;;;;;7.47;6.82;;;4.20;99.90;;;;;;2067186;28;20030;-82
2021/01/04 00:29:57;;;;;;;7.90;7.18;;;4.10;99.90;;;;;;2065338;28;20132;-83
2021/01/04 00:31:19;;;;;;;7.97;7.28;;;4.10;99.90;;;;;;2067291;28;20040;-83
2021/01/04 00:32:23;;;;;;;7.93;7.13;;;4.10;99.90;;;;;;2066826;28;20033;-81
2021/01/04 00:33:29;;;;;;;8.13;7.43;;;4.10;99.90;;;;;;2072586;28;20209;-83
2021/01/04 00:34:39;;;;;;;7.57;6.88;;;4.10;99.90;;;;;;2072427;28;20128;-83
2021/01/04 00:35:40;;;;;;;7.60;6.78;;;4.20;99.90;;;;;;2065688;28;20037;-82
2021/01/04 00:37:12;;;;;;;7.60;6.90;;;4.10;99.90;;;;;;2072492;28;20086;-82
2021/01/04 00:38:35;;;;;;;7.68;6.97;;;4.20;99.90;;;;;;2047973;29;20074;-82
2021/01/04 00:39:47;;;;;;;8.07;7.35;;;4.10;99.90;;;;;;2070573;28;20026;-82
2021/01/04 00:41:12;;;;;;;8.50;7.70;;;4.10;99.90;;;;;;2073682;28;20069;-82
2021/01/04 00:42:20;;;;;;;7.30;6.60;;;4.10;99.90;;;;;;2072695;28;20041;-82
2021/01/04 00:43:34;;;;;;;7.90;7.07;;;4.20;99.90;;;;;;2072935;28;20057;-82
2021/01/04 00:45:04;;;;;;;8.05;7.22;;;4.20;99.90;;;;;;2065171;28;20051;-82
2021/01/04 00:46:06;;;;;;;7.57;6.75;;;4.20;99.90;;;;;;2081237;28;20030;-81
2021/01/04 00:47:26;;;;;;;8.80;7.90;;;4.20;99.90;;;;;;2072520;28;20030;-82
2021/01/04 00:48:36;;;;;;;8.80;7.90;;;4.20;99.90;;;;;;2073097;28;20112;-81
2021/01/04 00:49:39;;;;;;;7.47;6.78;;;4.20;99.90;;;;;;2073131;28;20026;-82
2021/01/04 00:50:51;;;;;;;7.60;6.90;;;4.20;99.90;;;;;;2072440;28;20022;-81
2021/01/04 00:52:03;;;;;;;8.60;7.85;;;4.20;99.90;;;;;;2071085;28;20025;-81
2021/01/04 00:53:10;;;;;;;8.15;7.45;;;4.20;99.90;;;;;;2068999;28;20671;-81
2021/01/04 00:54:40;;;;;;;8.43;7.72;;;4.20;99.90;;;;;;2063129;28;20028;-81
2021/01/04 00:56:09;;;;;;;8.55;7.75;;;4.20;99.90;;;;;;2071237;28;20856;-81
2021/01/04 00:57:51;;;;;;;8.52;7.82;;;4.20;99.90;;;;;;2071498;28;20030;-81
2021/01/04 00:59:23;;;;;;;8.00;7.30;;;4.10;99.90;;;;;;2070942;28;20036;-81
2021/01/04 01:00:31;;;;;;;8.25;7.53;;;4.10;99.90;;;;;;2053042;28;20043;-80
2021/01/04 01:01:49;;;;;;;8.05;7.28;;;4.10;99.90;;;;;;2071617;28;20041;-82
2021/01/04 01:03:11;;;;;;;8.05;7.35;;;4.10;99.90;;;;;;2071649;28;20393;-81
2021/01/04 01:04:38;;;;;;;8.50;7.68;;;4.10;99.90;;;;;;2070996;28;20097;-81
2021/01/04 01:06:05;;;;;;;8.77;7.20;;;4.10;99.90;;;;;;2062961;28;20054;-80
2021/01/04 01:07:33;;;;;;;8.35;7.57;;;4.10;99.90;;;;;;2062728;28;20026;-81
2021/01/04 01:08:37;;;;;;;8.10;7.43;;;4.10;99.90;;;;;;2069355;28;20532;-81
2021/01/04 01:09:43;;;;;;;8.18;7.47;;;4.10;99.90;;;;;;2070729;28;20784;-80
2021/01/04 01:10:56;;;;;;;7.18;6.55;;;4.10;99.90;;;;;;2077952;28;20029;-80
2021/01/04 01:12:22;;;;;;;8.48;7.60;;;4.10;99.90;;;;;;2069409;28;20045;-81
2021/01/04 01:13:33;;;;;;;8.38;7.65;;;4.10;99.90;;;;;;2063440;28;20081;-81
2021/01/04 01:14:57;;;;;;;7.50;6.90;;;4.10;99.90;;;;;;2076140;28;20093;-81
2021/01/04 01:16:01;;;;;;;8.32;7.63;;;4.10;99.90;;;;;;2075934;28;20034;-80
2021/01/04 01:17:35;;;;;;;8.30;7.53;;;4.10;99.90;;;;;;2071431;28;20523;-80
2021/01/04 01:18:55;;;;;;;8.05;7.38;;;4.10;99.90;;;;;;2067542;28;20103;-81
2021/01/04 01:19:57;;;;;;;;;;;4.10;99.90;;;;;;2071925;28;20153;-81
2021/01/04 01:21:03;;;;;;;8.15;7.45;;;4.00;99.90;;;;;;2070582;28;19936;-80
2021/01/04 01:22:04;;;;;;;8.30;7.60;;;4.00;99.90;;;;;;2063873;28;20034;-81
2021/01/04 01:23:07;;;;;;;8.23;7.53;;;4.00;99.90;;;;;;2069181;28;20501;-80
2021/01/04 01:24:08;;;;;;;8.35;7.65;;;4.00;99.90;;;;;;2071633;28;20036;-81
2021/01/04 01:25:19;;;;;;;8.32;7.63;;;4.00;99.90;;;;;;2070926;28;20029;-81
2021/01/04 01:26:39;;;;;;;6.88;6.28;;;4.10;99.90;;;;;;2070345;28;20533;-80
2021/01/04 01:28:18;;;;;;;7.97;7.25;;;4.00;99.90;;;;;;2070326;28;20385;-81
2021/01/04 01:29:56;;;;;;;8.50;7.75;;;4.00;99.90;;;;;;2073045;28;20025;-82
2021/01/04 01:30:59;;;;;;;8.63;7.82;;;4.00;99.90;;;;;;2070765;28;20033;-80
2021/01/04 01:32:38;;;;;;;8.82;8.02;;;4.00;99.90;;;;;;2074182;28;20053;-80
2021/01/04 01:33:57;;;;;;;7.75;7.05;;;4.00;99.90;;;;;;2074053;28;20076;-81
2021/01/04 01:35:12;;;;;;;9.05;8.25;;;4.00;99.90;;;;;;2073099;28;20128;-81
2021/01/04 01:37:00;;;;;;;9.55;8.55;;;4.00;99.90;;;;;;2073290;28;20568;-82
2021/01/04 01:38:40;;;;;;;9.35;8.20;;;4.00;99.90;;;;;;2060216;28;20030;-80
2021/01/04 01:40:03;;;;;;;9.25;8.45;;;4.00;99.90;;;;;;2065670;28;20509;-81
2021/01/04 01:41:16;;;;;;;8.80;8.00;;;4.00;99.90;;;;;;2073741;28;20038;-80
2021/01/04 01:43:03;;;;;;;9.13;8.13;;;4.00;99.90;;;;;;2074559;28;20022;-81
2021/01/04 01:44:17;;;;;;;8.95;8.15;;;4.00;99.90;;;;;;2073885;28;20457;-82
2021/01/04 01:45:22;;;;;;;9.65;8.75;;;4.00;99.90;;;;;;2073335;28;20026;-82
2021/01/04 01:46:48;;;;;;;8.95;8.15;;;4.00;99.90;;;;;;2074716;28;20021;-82
2021/01/04 01:48:04;;;;;;;8.88;8.18;;;4.00;99.90;;;;;;2073377;28;20374;-81
2021/01/04 01:49:28;;;;;;;8.88;8.07;;;4.10;99.90;;;;;;2074065;28;20450;-81
2021/01/04 01:50:45;;;;;;;8.98;8.07;;;4.10;99.90;;;;;;2073677;28;20026;-81
2021/01/04 01:52:07;;;;;;;8.68;7.78;;;4.10;99.90;;;;;;2073233;28;20061;-81
2021/01/04 01:53:34;;;;;;;8.68;7.90;;;4.10;99.90;;;;;;2073296;28;20033;-81
2021/01/04 01:55:02;;;;;;;9.27;8.52;;;4.10;99.90;;;;;;2074072;28;20026;-82
2021/01/04 01:56:11;;;;;;;9.07;8.23;;;4.10;99.90;;;;;;2066462;28;20042;-81
2021/01/04 01:57:59;;;;;;;9.98;9.07;;;4.10;99.90;;;;;;2072321;28;20025;-82
2021/01/04 01:59:19;;;;;;;9.27;8.38;;;4.10;99.90;;;;;;2055677;28;20085;-81
2021/01/04 02:00:23;;;;;;;8.65;7.85;;;4.10;99.90;;;;;;2069792;28;20030;-82
2021/01/04 02:01:40;;;;;;;9.00;8.18;;;4.10;99.90;;;;;;2073822;28;20022;-82
2021/01/04 02:02:49;;;;;;;9.35;8.48;;;4.10;99.90;;;;;;2073123;28;20026;-81
2021/01/04 02:04:21;;;;;;;9.27;8.48;;;4.10;99.90;;;;;;2073229;28;20121;-80
2021/01/04 02:05:33;;;;;;;8.07;7.38;;;4.10;99.90;;;;;;2072846;28;20037;-82
2021/01/04 02:06:34;;;;;;;9.30;8.52;;;4.10;99.90;;;;;;2071580;28;20026;-81
2021/01/04 02:08:17;;;;;;;9.40;8.50;;;4.10;99.90;;;;;;2065482;28;20114;-82
2021/01/04 02:09:25;;;;;;;8.25;7.55;;;4.00;99.90;;;;;;2064287;28;20552;-81
2021/01/04 02:10:33;;;;;;;8.75;7.95;;;4.10;99.90;;;;;;2064386;28;20048;-81
2021/01/04 02:11:59;;;;;;;8.82;8.13;;;4.10;99.90;;;;;;2064604;28;20031;-81
2021/01/04 02:13:11;;;;;;;8.55;7.85;;;4.00;99.90;;;;;;2051126;28;20544;-82
2021/01/04 02:14:18;;;;;;;8.63;7.93;;;4.00;99.90;;;;;;2058009;28;20058;-82
2021/01/04 02:15:30;;;;;;;9.23;8.43;;;4.00;99.90;;;;;;2063064;28;20129;-81
2021/01/04 02:16:38;;;;;;;8.63;7.82;;;4.00;99.90;;;;;;2071481;28;20026;-82
2021/01/04 02:18:01;;;;;;;9.63;8.82;;;4.10;99.90;;;;;;2080252;28;20026;-82
2021/01/04 02:19:13;;;;;;;9.90;9.10;;;4.00;99.90;;;;;;2073288;28;20481;-81
2021/01/04 02:20:59;;;;;;;9.10;8.30;;;4.00;99.90;;;;;;2074129;28;20037;-82
2021/01/04 02:22:21;;;;;;;9.07;8.15;;;4.00;99.90;;;;;;2064933;28;20100;-83
2021/01/04 02:23:39;;;;;;;9.13;8.32;;;4.00;99.90;;;;;;2075170;28;20074;-83
2021/01/04 02:24:40;;;;;;;9.10;8.35;;;4.00;99.90;;;;;;2079472;28;20032;-81
2021/01/04 02:25:46;;;;;;;9.55;8.75;;;4.00;99.90;;;;;;2073724;28;20454;-82
2021/01/04 02:27:16;;;;;;;8.52;7.82;;;4.00;99.90;;;;;;2074357;28;20040;-82
2021/01/04 02:28:23;;;;;;;9.00;8.20;;;4.00;99.90;;;;;;2074005;28;20018;-81
2021/01/04 02:29:24;;;;;;;8.98;8.27;;;4.00;99.90;;;;;;2072625;28;20041;-82
2021/01/04 02:30:26;;;;;;;9.73;8.75;;;4.00;99.90;;;;;;2067117;28;20386;-81
2021/01/04 02:31:27;;;;;;;8.90;8.10;;;4.00;99.90;;;;;;2079218;28;20052;-82
2021/01/04 02:32:28;;;;;;;9.63;8.73;;;4.00;99.90;;;;;;2077891;28;20026;-82
2021/01/04 02:33:29;;;;;;;9.05;8.25;;;4.00;99.90;;;;;;2068507;28;20386;-82
2021/01/04 02:34:41;;;;;;;9.35;8.55;;;4.00;99.90;;;;;;2075049;28;20018;-83
2021/01/04 02:35:42;;;;;;;8.93;8.13;;;4.10;99.90;;;;;;2075593;28;20034;-82
2021/01/04 02:36:46;;;;;;;9.68;8.77;;;4.00;99.90;;;;;;2075782;28;20040;-83
2021/01/04 02:37:47;;;;;;;9.20;8.35;;;4.10;99.90;;;;;;2074616;28;20060;-83
2021/01/04 02:38:59;;;;;;;8.90;8.20;;;4.00;99.90;;;;;;2073812;28;20041;-82
2021/01/04 02:40:04;;;;;;;8.63;7.90;;;4.00;99.90;;;;;;2066909;28;20026;-82
2021/01/04 02:41:05;;;;;;;9.60;8.80;;;4.00;99.90;;;;;;2066311;28;20239;-82
2021/01/04 02:42:12;;;;;;;9.82;9.00;;;4.00;99.90;;;;;;2069476;28;20034;-83
2021/01/04 02:43:13;;;;;;;9.15;8.35;;;4.00;99.90;;;;;;2073286;28;20057;-82
2021/01/04 02:44:13;;;;;;;8.93;8.13;;;4.00;99.90;;;;;;2066000;28;20230;-82
2021/01/04 02:45:22;;;;;;;8.68;7.88;;;3.90;99.90;;;;;;2074102;28;20029;-82
2021/01/04 02:46:24;;;;;;;9.68;8.80;;;3.90;99.90;;;;;;2073850;28;20022;-82
2021/01/04 02:47:52;;;;;;;9.88;9.07;;;3.90;99.90;;;;;;2074208;28;20041;-82
2021/01/04 02:49:08;;;;;;;9.52;8.73;;;3.90;99.90;;;;;;2069731;28;20072;-83
2021/01/04 02:50:16;;;;;;;9.80;8.90;;;3.90;99.90;;;;;;2073779;28;20037;-82
2021/01/04 02:51:26;;;;;;;9.70;8.90;;;3.90;99.90;;;;;;2066476;28;20018;-82
2021/01/04 02:53:11;;;;;;;8.60;7.90;;;3.90;99.90;;;;;;2065747;28;20018;-81
2021/01/04 02:54:22;;;;;;;10.20;9.13;;;3.80;99.90;;;;;;2063869;28;20041;-82
2021/01/04 02:55:49;;;;;;;9.13;8.43;;;3.80;99.90;;;;;;2070109;28;20037;-82
2021/01/04 02:57:17;;;;;;;9.20;8.40;;;3.90;99.90;;;;;;2051880;28;20055;-82
2021/01/04 02:58:26;;;;;;;8.77;7.97;;;3.90;99.90;;;;;;2067542;28;20034;-81
2021/01/04 02:59:49;;;;;;;10.57;9.68;;;3.90;99.90;;;;;;2073918;28;20026;-83
2021/01/04 03:01:06;;;;;;;9.35;8.55;;;3.90;99.90;;;;;;2074001;28;20022;-80
2021/01/04 03:02:28;;;;;;;10.45;9.32;;;3.90;99.90;;;;;;2074710;28;20014;-80
2021/01/04 03:03:29;;;;;;;10.52;9.63;;;3.90;99.90;;;;;;2073240;28;20032;-82
2021/01/04 03:04:34;;;;;;;9.45;8.57;;;3.90;99.90;;;;;;2074120;28;20025;-82
2021/01/04 03:05:34;;;;;;;9.80;8.90;;;4.00;99.90;;;;;;2081723;28;20488;-82
2021/01/04 03:06:51;;;;;;;11.02;9.93;;;4.00;99.90;;;;;;2074224;28;20032;-82
2021/01/04 03:07:57;;;;;;;10.25;9.35;;;4.00;99.90;;;;;;2074662;28;20018;-82
2021/01/04 03:08:58;;;;;;;9.80;9.00;;;4.00;99.90;;;;;;2074744;28;20603;-83
2021/01/04 03:10:06;;;;;;;9.48;8.68;;;4.00;99.90;;;;;;2081719;28;20052;-82
2021/01/04 03:11:13;;;;;;;10.85;9.93;;;4.10;99.90;;;;;;2080764;28;20036;-82
2021/01/04 03:12:40;;;;;;;10.02;9.02;;;4.00;99.90;;;;;;2074331;28;20029;-82
2021/01/04 03:13:55;;;;;;;9.45;8.55;;;4.00;99.90;;;;;;2070901;28;20194;-81
2021/01/04 03:14:59;;;;;;;9.38;8.52;;;4.00;99.90;;;;;;2073139;28;20741;-81
2021/01/04 03:16:11;;;;;;;9.95;9.15;;;4.00;99.90;;;;;;2073956;28;20033;-81
2021/01/04 03:17:56;;;;;;;9.00;8.20;;;4.10;99.90;;;;;;2075994;28;20440;-81
2021/01/04 03:19:02;;;;;;;9.93;9.07;;;4.00;99.90;;;;;;2054067;28;20097;-81
2021/01/04 03:20:09;;;;;;;10.27;8.95;;;4.00;99.90;;;;;;2064302;28;20023;-80
2021/01/04 03:21:11;;;;;;;9.43;8.57;;;4.00;99.90;;;;;;2069014;28;20076;-81
2021/01/04 03:22:14;;;;;;;9.25;8.45;;;4.00;99.90;;;;;;2072020;28;20041;-81
2021/01/04 03:23:15;;;;;;;9.65;8.65;;;4.00;99.90;;;;;;2063716;28;20447;-81
2021/01/04 03:24:16;;;;;;;9.65;8.75;;;4.10;99.90;;;;;;2072434;28;20053;-80
2021/01/04 03:25:46;;;;;;;9.93;9.07;;;4.10;99.90;;;;;;2071961;28;20049;-81
2021/01/04 03:26:54;;;;;;;9.30;8.50;;;4.00;99.90;;;;;;2034765;29;20607;-81
2021/01/04 03:27:55;;;;;;;9.35;8.45;;;4.10;99.90;;;;;;2070139;28;20587;-82
2021/01/04 03:28:55;;;;;;;9.35;8.55;;;4.10;99.90;;;;;;2072357;28;20034;-81
2021/01/04 03:29:56;;;;;;;9.55;8.75;;;4.10;99.90;;;;;;2073086;28;20053;-81
2021/01/04 03:30:58;;;;;;;9.65;8.85;;;4.10;99.90;;;;;;2072711;28;20026;-81
2021/01/04 03:31:59;;;;;;;10.60;9.73;;;4.10;99.90;;;;;;2072933;28;20022;-81
2021/01/04 03:32:59;;;;;;;9.95;9.05;;;4.10;99.90;;;;;;2071355;28;20049;-81
2021/01/04 03:34:00;;;;;;;10.07;9.18;;;4.10;99.90;;;;;;2067511;28;20033;-82
2021/01/04 03:35:00;;;;;;;10.30;9.43;;;4.10;99.90;;;;;;2071930;28;20021;-81
2021/01/04 03:36:01;;;;;;;9.88;9.02;;;4.10;99.90;;;;;;2072460;28;20437;-81
2021/01/04 03:37:02;;;;;;;10.05;9.23;;;4.10;99.90;;;;;;2072036;28;20108;-81
2021/01/04 03:38:02;;;;;;;9.98;9.05;;;4.10;99.90;;;;;;2072435;28;20029;-82
2021/01/04 03:39:03;;;;;;;10.13;9.23;;;4.10;99.90;;;;;;2072525;28;20026;-81
2021/01/04 03:40:07;;;;;;;11.10;10.10;;;4.10;99.90;;;;;;2073040;28;20026;-81
2021/01/04 03:41:08;;;;;;;9.85;8.95;;;4.10;99.90;;;;;;2072062;28;20030;-82
2021/01/04 03:42:09;;;;;;;10.05;9.15;;;4.10;99.90;;;;;;2072251;28;20073;-81
2021/01/04 03:43:12;;;;;;;9.85;9.05;;;4.10;99.90;;;;;;2072768;28;20025;-81
2021/01/04 03:44:12;;;;;;;10.35;9.50;;;4.10;99.90;;;;;;2072900;28;20537;-82
2021/01/04 03:45:15;;;;;;;9.57;8.68;;;4.10;99.90;;;;;;2072006;28;20033;-81
2021/01/04 03:46:16;;;;;;;10.48;9.57;;;4.10;99.90;;;;;;2064605;28;20019;-81
2021/01/04 03:47:16;;;;;;;10.43;9.63;;;4.10;99.90;;;;;;2072201;28;20022;-81
2021/01/04 03:48:17;;;;;;;10.48;9.57;;;4.10;99.90;;;;;;2072544;28;20014;-81
2021/01/04 03:49:18;;;;;;;10.85;9.93;;;4.10;99.90;;;;;;2072105;28;20037;-82
2021/01/04 03:50:19;;;;;;;10.38;9.48;;;4.10;99.90;;;;;;2072996;28;20121;-81
2021/01/04 03:51:20;;;;;;;10.43;9.43;;;4.10;99.90;;;;;;2072987;28;20057;-81
2021/01/04 03:52:20;;;;;;;10.07;9.27;;;4.10;99.90;;;;;;2072994;28;20026;-81
2021/01/04 03:53:21;;;;;;;10.13;9.32;;;4.10;99.90;;;;;;2072802;28;20362;-81
2021/01/04 03:54:22;;;;;;;10.85;9.88;;;4.10;99.90;;;;;;2073303;28;20026;-82
2021/01/04 03:55:23;;;;;;;9.70;8.90;;;4.10;99.90;;;;;;2072769;28;20029;-81
2021/01/04 03:56:23;;;;;;;10.45;9.55;;;4.10;99.90;;;;;;2072174;28;20026;-82
2021/01/04 03:57:24;;;;;;;9.82;8.93;;;4.20;99.90;;;;;;2063775;28;20058;-81
2021/01/04 03:58:25;;;;;;;9.68;8.80;;;4.20;99.90;;;;;;2073274;28;20041;-81
2021/01/04 03:59:49;;;;;;;10.35;9.45;;;4.20;99.90;;;;;;2076824;28;20682;-83
2021/01/04 04:00:49;;;;;;;9.68;8.77;;;4.20;99.90;;;;;;2066591;28;20053;-82
2021/01/04 04:01:52;;;;;;;9.20;8.50;;;4.20;99.90;;;;;;2064276;28;20121;-83
2021/01/04 04:02:53;;;;;;;9.82;8.93;;;4.20;99.90;;;;;;2063770;28;20018;-81
2021/01/04 04:03:54;;;;;;;10.23;9.32;;;4.20;99.90;;;;;;2063471;28;20055;-82
2021/01/04 04:04:54;;;;;;;10.13;9.27;;;4.20;99.90;;;;;;2063946;28;20081;-83
2021/01/04 04:05:55;;;;;;;9.70;8.90;;;4.20;99.90;;;;;;2063649;28;20029;-81
2021/01/04 04:06:55;;;;;;;9.75;8.93;;;4.20;99.90;;;;;;2063729;28;20026;-81
2021/01/04 04:07:56;;;;;;;10.15;9.15;;;4.20;99.90;;;;;;2065587;28;20652;-83
2021/01/04 04:08:56;;;;;;;9.60;8.70;;;4.20;99.90;;;;;;2072002;28;20057;-81
2021/01/04 04:09:57;;;;;;;10.57;9.63;;;4.20;99.90;;;;;;2069856;28;20021;-83
2021/01/04 04:10:58;;;;;;;10.43;9.38;;;4.20;99.90;;;;;;2071794;28;20030;-82
2021/01/04 04:11:59;;;;;;;10.23;9.27;;;4.20;99.90;;;;;;2074511;28;20033;-81
2021/01/04 04:12:59;;;;;;;9.80;8.90;;;4.10;99.90;;;;;;2071170;28;20028;-82
2021/01/04 04:14:00;;;;;;;9.60;8.80;;;4.20;99.90;;;;;;2071803;28;20096;-82
2021/01/04 04:15:01;;;;;;;10.10;9.15;;;4.10;99.90;;;;;;2071200;28;20075;-82
2021/01/04 04:16:02;;;;;;;9.38;8.55;;;4.10;99.90;;;;;;2072927;28;20018;-81
2021/01/04 04:17:02;;;;;;;10.32;9.43;;;4.10;99.90;;;;;;2071578;28;20041;-83
2021/01/04 04:18:03;;;;;;;9.75;8.82;;;4.10;99.90;;;;;;2072114;28;20572;-81
2021/01/04 04:19:05;;;;;;;9.88;9.02;;;4.10;99.90;;;;;;2071398;28;20030;-81
2021/01/04 04:20:09;;;;;;;8.75;8.05;;;4.10;99.90;;;;;;2063816;28;20030;-83
2021/01/04 04:21:13;;;;;;;9.77;8.88;;;4.10;99.90;;;;;;2071802;28;20467;-81
2021/01/04 04:22:14;;;;;;;9.85;8.93;;;4.10;99.90;;;;;;2072006;28;20041;-83
2021/01/04 04:23:15;;;;;;;10.00;9.10;;;4.10;99.90;;;;;;2071399;28;20056;-82
2021/01/04 04:24:15;;;;;;;8.93;8.23;;;4.10;99.90;;;;;;2072310;28;20424;-81
2021/01/04 04:25:19;;;;;;;9.75;8.68;;;4.10;99.90;;;;;;2072037;28;20053;-81
2021/01/04 04:26:25;;;;;;;9.95;9.05;;;4.10;99.90;;;;;;2063739;28;20109;-81
2021/01/04 04:27:25;;;;;;;9.27;8.38;;;4.10;99.90;;;;;;2064298;28;20029;-81
2021/01/04 04:28:26;;;;;;;9.68;8.88;;;4.10;99.90;;;;;;2063361;28;20065;-81
2021/01/04 04:29:26;;;;;;;9.30;8.52;;;4.10;99.90;;;;;;2072175;28;20065;-81
2021/01/04 04:30:27;;;;;;;8.95;8.13;;;4.10;99.90;;;;;;2071515;28;20161;-81
2021/01/04 04:31:28;;;;;;;8.43;7.68;;;4.10;99.90;;;;;;2073093;28;20026;-82
2021/01/04 04:32:28;;;;;;;8.65;7.90;;;4.10;99.90;;;;;;2072684;28;20109;-81
2021/01/04 04:33:30;;;;;;;9.18;8.38;;;4.10;99.90;;;;;;2070144;28;20021;-83
2021/01/04 04:34:31;;;;;;;8.88;8.18;;;4.10;99.90;;;;;;2070846;28;20668;-81
2021/01/04 04:35:31;;;;;;;9.07;8.27;;;4.10;99.90;;;;;;2078894;28;20064;-82
2021/01/04 04:36:32;;;;;;;8.65;7.95;;;4.10;99.90;;;;;;2071389;28;20034;-81
2021/01/04 04:37:32;;;;;;;8.60;7.82;;;4.10;99.90;;;;;;2071505;28;20034;-81
2021/01/04 04:38:33;;;;;;;8.85;8.05;;;4.10;99.90;;;;;;2071350;28;20040;-80
2021/01/04 04:39:35;;;;;;;8.88;7.72;;;4.10;99.90;;;;;;2071360;28;20034;-81
2021/01/04 04:40:35;;;;;;;8.82;8.02;;;4.20;99.90;;;;;;2072141;28;20030;-82
2021/01/04 04:41:41;;;;;;;9.45;8.45;;;4.20;99.90;;;;;;2071609;28;20034;-82
2021/01/04 04:42:42;;;;;;;8.82;8.02;;;4.20;99.90;;;;;;2071088;28;20018;-82
2021/01/04 04:43:46;;;;;;;8.48;7.78;;;4.10;99.90;;;;;;2065831;28;20367;-82
2021/01/04 04:45:04;;;;;;;9.77;8.88;;;4.20;99.90;;;;;;2063874;28;20038;-82
2021/01/04 04:46:22;;;;;;;8.70;7.90;;;4.20;99.90;;;;;;2063728;28;20105;-81
2021/01/04 04:48:08;;;;;;;8.52;7.82;;;4.20;99.90;;;;;;2063934;28;20060;-82
2021/01/04 04:49:21;;;;;;;8.75;7.95;;;4.10;99.90;;;;;;2071066;28;20030;-81
2021/01/04 04:50:59;;;;;;;8.80;8.00;;;4.10;99.90;;;;;;2065136;28;20030;-82
2021/01/04 04:52:17;;;;;;;9.07;8.18;;;4.00;99.90;;;;;;2068041;28;20071;-82
2021/01/04 04:53:44;;;;;;;9.15;8.25;;;4.10;99.90;;;;;;2071691;28;20145;-83
2021/01/04 04:55:01;;;;;;;8.43;7.65;;;4.00;99.90;;;;;;2072525;28;20034;-81
2021/01/04 04:56:34;;;;;;;7.72;7.13;;;4.00;99.90;;;;;;2071458;28;20021;-81
2021/01/04 04:57:59;;;;;;;8.77;7.97;;;4.00;99.90;;;;;;2064161;28;20038;-81
2021/01/04 04:59:20;;;;;;;8.07;7.35;;;4.00;99.90;;;;;;2072356;28;20041;-80
2021/01/04 05:00:48;;;;;;;9.63;8.55;;;4.00;99.90;;;;;;2072174;28;20112;-82
2021/01/04 05:02:04;;;;;;;9.63;8.73;;;4.00;99.90;;;;;;2068418;28;20026;-81
2021/01/04 05:03:34;;;;;;;8.68;7.88;;;4.00;99.90;;;;;;2073320;28;20485;-80
2021/01/04 05:04:50;;;;;;;8.68;7.88;;;4.00;99.90;;;;;;2074013;28;20030;-81
2021/01/04 05:06:14;;;;;;;8.75;8.00;;;4.00;99.90;;;;;;2074019;28;20026;-80
2021/01/04 05:07:26;;;;;;;8.98;8.07;;;4.00;99.90;;;;;;2060907;28;20038;-81
2021/01/04 05:08:50;;;;;;;8.50;7.80;;;4.00;99.90;;;;;;2075195;28;21005;-81
2021/01/04 05:10:05;;;;;;;8.98;8.18;;;4.00;99.90;;;;;;2077713;28;20029;-83
2021/01/04 05:11:07;;;;;;;9.60;8.80;;;4.00;99.90;;;;;;2075630;28;20022;-83
2021/01/04 05:12:16;;;;;;;9.60;8.70;;;4.00;99.90;;;;;;2074768;28;20026;-82
2021/01/04 05:13:23;;;;;;;9.10;8.20;;;4.00;99.90;;;;;;2075760;28;20021;-83
2021/01/04 05:14:26;;;;;;;9.23;8.35;;;4.00;99.90;;;;;;2075553;28;20718;-82
2021/01/04 05:15:39;;;;;;;10.02;8.23;;;3.90;99.90;;;;;;2066477;28;20119;-83
2021/01/04 05:17:16;;;;;;;9.25;8.45;;;4.00;99.90;;;;;;2069038;28;20117;-82
2021/01/04 05:18:29;;;;;;;9.30;8.50;;;3.90;99.90;;;;;;2075056;28;20504;-81
2021/01/04 05:20:17;;;;;;;8.75;7.95;;;3.90;99.90;;;;;;2074995;28;20066;-83
2021/01/04 05:21:48;;;;;;;8.88;8.07;;;3.90;99.90;;;;;;2026734;29;20099;-83
2021/01/04 05:23:26;;;;;;;9.27;8.48;;;3.90;99.90;;;;;;2071016;28;20030;-83
2021/01/04 05:24:58;;;;;;;9.30;8.50;;;3.90;99.90;;;;;;2057053;28;20051;-84
2021/01/04 05:26:34;;;;;;;8.73;8.02;;;3.90;99.90;;;;;;2075852;28;20022;-82
2021/01/04 05:27:53;;;;;;;8.98;8.07;;;3.80;99.90;;;;;;2074824;28;20105;-82
2021/01/04 05:29:30;;;;;;;9.60;8.60;;;3.80;99.90;;;;;;2074259;28;20022;-81
2021/01/04 05:30:37;;;;;;;9.15;8.23;;;3.80;99.90;;;;;;2071798;28;20034;-81
2021/01/04 05:31:56;;;;;;;9.50;8.70;;;3.80;99.90;;;;;;2073656;28;20034;-82
2021/01/04 05:33:21;;;;;;;10.35;9.45;;;3.80;99.90;;;;;;2068072;28;20092;-82
2021/01/04 05:34:36;;;;;;;9.57;8.68;;;3.80;99.90;;;;;;2069318;28;20701;-82
2021/01/04 05:35:37;;;;;;;9.55;8.75;;;3.80;99.90;;;;;;2072270;28;20022;-81
2021/01/04 05:36:57;;;;;;;10.07;9.25;;;3.80;99.90;;;;;;2065847;28;20089;-81
2021/01/04 05:38:06;;;;;;;9.68;8.70;;;3.80;99.90;;;;;;2065481;28;20026;-81
2021/01/04 05:39:22;;;;;;;9.80;9.00;;;3.80;99.90;;;;;;2071334;28;20040;-82
2021/01/04 05:40:28;;;;;;;9.57;8.68;;;3.80;99.90;;;;;;2074545;28;20052;-82
2021/01/04 05:41:43;;;;;;;9.90;9.10;;;3.80;99.90;;;;;;2074469;28;20026;-83
2021/01/04 05:43:01;;;;;;;8.95;8.25;;;3.80;99.90;;;;;;2073578;28;20028;-81
2021/01/04 05:44:44;;;;;;;9.70;8.82;;;3.80;99.90;;;;;;2073997;28;20542;-82
2021/01/04 05:45:55;;;;;;;9.50;8.73;;;3.80;99.90;;;;;;2039485;29;20079;-82
2021/01/04 05:47:24;;;;;;;9.57;8.77;;;3.80;99.90;;;;;;2032974;29;20044;-81
2021/01/04 05:48:39;;;;;;;9.70;8.80;;;3.80;99.90;;;;;;2058213;28;20026;-81
2021/01/04 05:49:48;;;;;;;9.13;8.32;;;3.80;99.90;;;;;;2072097;28;20025;-80
2021/01/04 05:51:10;;;;;;;9.98;9.07;;;3.80;99.90;;;;;;2072532;28;20939;-80
2021/01/04 05:52:10;;;;;;;9.68;8.77;;;3.80;99.90;;;;;;2074535;28;20021;-82
2021/01/04 05:53:11;;;;;;;9.40;8.57;;;3.80;99.90;;;;;;2073257;28;20022;-82
2021/01/04 05:54:16;;;;;;;9.27;8.48;;;3.80;99.90;;;;;;2074925;28;20123;-81
2021/01/04 05:55:16;;;;;;;10.02;9.13;;;3.80;99.90;;;;;;2074873;28;20026;-82
2021/01/04 05:56:26;;;;;;;10.02;9.13;;;3.80;99.90;;;;;;2074649;28;20469;-82
2021/01/04 05:57:28;;;;;;;9.27;8.27;;;3.80;99.90;;;;;;2074124;28;20072;-82
2021/01/04 05:58:34;;;;;;;10.23;9.32;;;3.80;99.90;;;;;;2074248;28;20026;-81
2021/01/04 05:59:52;;;;;;;9.27;8.48;;;3.80;99.90;;;;;;2073521;28;20044;-81
2021/01/04 06:00:53;;;;;;;10.48;9.50;;;3.90;99.90;;;;;;2068008;28;20117;-82
2021/01/04 06:02:02;;;;;;;10.73;9.73;;;3.90;99.90;;;;;;2079507;28;20520;-81
2021/01/04 06:03:22;;;;;;;10.10;9.20;;;3.90;99.90;;;;;;2074673;28;20033;-82
2021/01/04 06:04:26;;;;;;;10.43;9.52;;;3.90;99.90;;;;;;2073500;28;20409;-80
2021/01/04 06:05:26;;;;;;;11.43;10.30;;;3.90;99.90;;;;;;2066293;28;20030;-81
2021/01/04 06:06:32;;;;;;;11.23;10.10;;;3.90;99.90;;;;;;2073654;28;20022;-81
2021/01/04 06:07:36;;;;;;;10.40;9.50;;;3.90;99.90;;;;;;2074052;28;20018;-81
2021/01/04 06:08:37;;;;;;;10.40;9.50;;;3.90;99.90;;;;;;2073839;28;20030;-81
2021/01/04 06:09:37;;;;;;;10.07;9.18;;;4.00;99.90;;;;;;2072928;28;20029;-81
2021/01/04 06:10:38;;;;;;;9.93;9.07;;;4.00;99.90;;;;;;2067636;28;20033;-81
2021/01/04 06:11:47;;;;;;;10.88;9.88;;;4.00;99.90;;;;;;2066948;28;20030;-81
2021/01/04 06:12:51;;;;;;;10.68;9.77;;;4.00;99.90;;;;;;2073602;28;20030;-81
2021/01/04 06:13:56;;;;;;;9.38;8.57;;;4.00;99.90;;;;;;2073519;28;20113;-81
2021/01/04 06:14:58;;;;;;;9.75;8.95;;;4.00;99.90;;;;;;2073892;28;20057;-81
2021/01/04 06:16:07;;;;;;;10.20;9.20;;;4.00;99.90;;;;;;2073528;28;20110;-81
2021/01/04 06:17:25;;;;;;;9.80;9.00;;;4.00;99.90;;;;;;2066343;28;20033;-81
2021/01/04 06:18:27;;;;;;;10.65;9.65;;;4.00;99.90;;;;;;2065578;28;20220;-81
2021/01/04 06:19:32;;;;;;;10.48;9.50;;;4.00;99.90;;;;;;2068942;28;20030;-81